createdAt,value
2019-04-30T00:01:18.447Z,51.52
2019-04-30T00:03:59.373Z,51.43
2019-04-30T00:06:37.700Z,51.50
2019-04-30T00:09:09.850Z,51.53
2019-04-30T00:11:46.061Z,51.74
2019-04-30T00:14:19.616Z,51.57
2019-04-30T00:16:52.423Z,51.84
2019-04-30T00:19:25.876Z,51.76
2019-04-30T00:22:00.407Z,51.95
2019-04-30T00:24:35.452Z,51.86
2019-04-30T00:27:08.591Z,52.09
2019-04-30T00:29:41.482Z,52.35
2019-04-30T00:32:15.972Z,52.21
2019-04-30T00:34:48.980Z,52.57
2019-04-30T00:37:22.940Z,52.52
2019-04-30T00:39:55.853Z,52.55
2019-04-30T00:42:29.780Z,52.65
2019-04-30T00:45:06.702Z,52.80
2019-04-30T00:47:39.455Z,52.86
2019-04-30T00:50:14.848Z,53.28
2019-04-30T00:52:48.108Z,53.04
2019-04-30T00:55:21.043Z,53.09
2019-04-30T00:57:55.506Z,53.31
2019-04-30T01:00:29.792Z,53.44
2019-04-30T01:03:09.351Z,53.41
2019-04-30T01:05:44.493Z,53.91
2019-04-30T01:08:21.180Z,53.82
2019-04-30T01:10:51.649Z,54.20
2019-04-30T01:13:24.472Z,54.22
2019-04-30T01:15:58.809Z,54.44
2019-04-30T01:18:32.188Z,54.31
2019-04-30T01:21:07.848Z,54.70
2019-04-30T01:23:43.098Z,54.80
2019-04-30T01:26:14.632Z,54.74
2019-04-30T01:28:49.390Z,54.87
2019-04-30T01:31:22.517Z,54.66
2019-04-30T01:33:55.321Z,54.68
2019-04-30T01:36:29.381Z,54.99
2019-04-30T01:39:02.422Z,55.18
2019-04-30T01:41:38.662Z,55.22
2019-04-30T01:44:12.129Z,55.41
2019-04-30T01:46:48.271Z,55.47
2019-04-30T01:49:20.386Z,55.37
2019-04-30T01:51:57.331Z,55.21
2019-04-30T01:54:29.212Z,55.51
2019-04-30T01:57:19.913Z,55.67
2019-04-30T02:00:20.349Z,55.54
2019-04-30T02:02:53.337Z,55.57
2019-04-30T02:05:26.120Z,56.16
2019-04-30T02:07:59.064Z,55.75
2019-04-30T02:10:31.989Z,56.13
2019-04-30T02:13:04.914Z,56.24
2019-04-30T02:15:39.031Z,56.15
2019-04-30T02:18:12.210Z,56.50
2019-04-30T02:20:45.122Z,56.64
2019-04-30T02:23:19.599Z,56.74
2019-04-30T02:25:52.974Z,56.82
2019-04-30T02:28:25.806Z,56.93
2019-04-30T02:31:00.417Z,57.05
2019-04-30T02:33:35.150Z,57.21
2019-04-30T02:36:29.832Z,57.37
2019-04-30T02:39:02.727Z,57.37
2019-04-30T02:41:40.870Z,57.44
2019-04-30T02:44:14.640Z,57.46
2019-04-30T02:46:50.495Z,57.43
2019-04-30T02:49:24.237Z,57.42
2019-04-30T02:51:59.504Z,57.69
2019-04-30T02:54:34.740Z,58.10
2019-04-30T02:57:14.107Z,58.14
2019-04-30T03:00:13.257Z,58.18
2019-04-30T03:02:46.271Z,58.30
2019-04-30T03:05:20.563Z,58.46
2019-04-30T03:07:53.721Z,58.66
2019-04-30T03:10:26.691Z,58.61
2019-04-30T03:13:00.145Z,59.02
2019-04-30T03:15:33.105Z,59.04
2019-04-30T03:18:24.800Z,59.28
2019-04-30T03:21:03.640Z,58.92
2019-04-30T03:23:38.983Z,59.55
2019-04-30T03:26:12.973Z,59.88
2019-04-30T03:28:45.622Z,60.12
2019-04-30T03:31:22.587Z,59.96
2019-04-30T03:33:53.027Z,60.46
2019-04-30T03:36:25.873Z,60.68
2019-04-30T03:38:59.994Z,60.52
2019-04-30T03:41:34.365Z,60.87
2019-04-30T03:44:18.568Z,61.07
2019-04-30T03:46:41.684Z,61.09
2019-04-30T03:49:14.640Z,61.18
2019-04-30T03:51:49.699Z,61.31
2019-04-30T03:54:22.047Z,61.53
2019-04-30T03:56:56.578Z,61.72
2019-04-30T03:59:30.211Z,61.60
2019-04-30T04:02:20.944Z,61.97
2019-04-30T04:05:10.049Z,61.76
2019-04-30T04:07:53.033Z,64.74
2019-04-30T04:10:43.364Z,57.96
2019-04-30T04:13:16.257Z,49.89
2019-04-30T04:15:49.995Z,50.53
2019-04-30T04:18:23.172Z,51.82
2019-04-30T04:21:08.805Z,52.84
2019-04-30T04:23:32.832Z,53.91
2019-04-30T04:26:05.114Z,54.20
2019-04-30T04:28:43.119Z,54.73
2019-04-30T04:31:12.651Z,55.14
2019-04-30T04:33:45.489Z,55.48
2019-04-30T04:36:20.011Z,55.52
2019-04-30T04:38:53.214Z,55.96
2019-04-30T04:41:26.127Z,55.99
2019-04-30T04:44:00.344Z,56.16
2019-04-30T04:46:33.358Z,56.55
2019-04-30T04:49:06.216Z,56.98
2019-04-30T04:51:42.208Z,56.96
2019-04-30T04:54:13.605Z,57.16
2019-04-30T04:56:46.515Z,57.40
2019-04-30T04:59:20.154Z,57.63
2019-04-30T05:01:53.199Z,57.77
2019-04-30T05:04:26.132Z,58.30
2019-04-30T05:07:00.086Z,58.13
2019-04-30T05:09:33.153Z,58.31
2019-04-30T05:12:06.088Z,58.28
2019-04-30T05:14:38.982Z,58.40
2019-04-30T05:17:11.791Z,58.81
2019-04-30T05:19:44.749Z,58.77
2019-04-30T05:22:19.025Z,58.84
2019-04-30T05:24:52.341Z,59.14
2019-04-30T05:27:25.370Z,59.34
2019-04-30T05:29:59.582Z,59.33
2019-04-30T05:32:32.571Z,59.30
2019-04-30T05:35:06.057Z,59.43
2019-04-30T05:37:39.054Z,59.74
2019-04-30T05:40:12.901Z,59.24
2019-04-30T05:42:46.099Z,59.45
2019-04-30T05:45:19.384Z,59.21
2019-04-30T05:47:52.446Z,59.57
2019-04-30T05:50:25.388Z,59.46
2019-04-30T05:52:59.211Z,59.13
2019-04-30T05:55:33.743Z,58.94
2019-04-30T05:58:09.182Z,59.04
2019-04-30T06:00:42.792Z,59.10
2019-04-30T06:04:33.650Z,58.89
2019-04-30T06:07:39.644Z,58.60
2019-04-30T06:10:59.767Z,58.18
2019-04-30T06:13:50.575Z,56.44
2019-04-30T06:16:25.700Z,56.02
2019-04-30T06:18:58.726Z,55.99
2019-04-30T06:21:32.006Z,55.77
2019-04-30T06:24:04.810Z,55.46
2019-04-30T06:26:39.394Z,54.71
2019-04-30T06:29:18.943Z,54.05
2019-04-30T06:31:51.155Z,53.56
2019-04-30T06:34:25.270Z,53.16
2019-04-30T06:36:59.582Z,53.76
2019-04-30T06:39:35.937Z,52.79
2019-04-30T06:42:12.783Z,52.71
2019-04-30T06:44:44.341Z,51.73
2019-04-30T06:47:32.350Z,51.66
2019-04-30T06:49:56.465Z,51.50
2019-04-30T06:52:35.309Z,51.69
2019-04-30T06:55:33.683Z,51.17
2019-04-30T06:58:16.839Z,50.05
2019-04-30T07:01:09.505Z,49.88
2019-04-30T07:04:23.229Z,49.15
2019-04-30T07:07:18.298Z,48.29
2019-04-30T07:10:53.102Z,47.69
2019-04-30T07:13:36.823Z,47.49
2019-04-30T07:25:35.867Z,46.45
2019-04-30T07:28:14.655Z,44.65
2019-04-30T07:31:11.625Z,43.26
2019-04-30T07:33:50.658Z,45.17
2019-04-30T07:39:14.877Z,43.43
2019-04-30T07:42:38.214Z,41.66
2019-04-30T07:46:20.602Z,41.36
2019-04-30T07:49:56.521Z,41.73
2019-04-30T07:53:18.692Z,39.42
2019-04-30T07:57:36.186Z,40.45
2019-04-30T08:00:35.676Z,39.49
2019-04-30T08:09:38.370Z,43.76
2019-04-30T09:02:15.974Z,35.52
2019-04-30T09:05:55.047Z,34.79
2019-04-30T09:30:13.211Z,33.02
2019-04-30T09:34:20.735Z,31.55
2019-04-30T09:41:13.116Z,29.09
2019-04-30T09:54:21.982Z,28.89
2019-04-30T10:00:39.350Z,28.87
2019-04-30T10:06:39.834Z,28.35
2019-04-30T10:09:50.636Z,28.77
2019-04-30T10:13:18.421Z,28.46
2019-04-30T10:17:57.623Z,28.16
2019-04-30T10:21:23.696Z,27.90
2019-04-30T10:23:41.504Z,27.70
2019-04-30T10:26:48.404Z,27.94
2019-04-30T10:30:03.226Z,27.38
2019-04-30T10:32:40.920Z,27.17
2019-04-30T10:46:59.636Z,27.35
2019-04-30T10:50:06.873Z,27.06
2019-04-30T11:10:45.668Z,26.85
2019-04-30T11:20:47.057Z,27.19
2019-04-30T11:27:37.318Z,25.70
2019-04-30T11:37:58.407Z,25.69
2019-04-30T11:40:49.389Z,25.46
2019-04-30T11:44:09.297Z,25.88
2019-04-30T11:47:11.807Z,26.06
2019-04-30T11:50:04.299Z,25.63
2019-04-30T11:56:58.818Z,26.11
2019-04-30T12:08:10.982Z,25.26
2019-04-30T12:25:12.074Z,24.82
2019-04-30T12:28:36.947Z,25.69
2019-04-30T12:32:11.095Z,24.87
2019-04-30T12:35:10.050Z,25.76
2019-04-30T12:37:52.089Z,24.84
2019-04-30T12:40:32.397Z,25.19
2019-04-30T12:44:08.693Z,25.18
2019-04-30T12:46:50.690Z,25.22
2019-04-30T12:49:56.207Z,24.65
2019-04-30T12:52:43.648Z,25.41
2019-04-30T12:56:00.137Z,25.23
2019-04-30T12:58:58.029Z,25.83
2019-04-30T13:02:09.005Z,25.83
2019-04-30T13:05:04.051Z,25.85
2019-04-30T13:08:13.052Z,25.60
2019-04-30T13:11:30.829Z,25.79
2019-04-30T13:14:10.621Z,26.24
2019-04-30T13:17:00.189Z,26.23
2019-04-30T13:19:41.071Z,26.51
2019-04-30T13:22:21.101Z,26.24
2019-04-30T13:25:03.083Z,26.55
2019-04-30T13:28:00.499Z,26.76
2019-04-30T13:30:32.604Z,26.10
2019-04-30T13:33:54.676Z,26.77
2019-04-30T13:36:41.137Z,26.92
2019-04-30T13:39:29.261Z,26.49
2019-04-30T13:42:29.507Z,26.64
2019-04-30T13:45:08.949Z,26.07
2019-04-30T13:48:10.672Z,26.31
2019-04-30T13:50:57.326Z,26.85
2019-04-30T13:54:22.373Z,27.01
2019-04-30T13:57:34.503Z,26.89
2019-04-30T14:00:41.628Z,26.60
2019-04-30T14:06:29.759Z,26.43
2019-04-30T14:09:42.751Z,26.67
2019-04-30T14:16:35.305Z,26.59
2019-04-30T14:35:35.063Z,26.65
2019-04-30T14:38:08.990Z,26.40
2019-04-30T14:41:01.003Z,26.09
2019-04-30T14:43:56.022Z,26.36
2019-04-30T14:47:12.380Z,26.29
2019-04-30T14:50:18.587Z,26.44
2019-04-30T14:53:30.611Z,26.47
2019-04-30T14:57:10.845Z,26.49
2019-04-30T14:59:39.017Z,26.39
2019-04-30T15:06:06.408Z,26.02
2019-04-30T15:08:55.732Z,26.40
2019-04-30T15:11:46.389Z,26.11
2019-04-30T15:14:41.018Z,26.15
2019-04-30T15:17:39.221Z,26.07
2019-04-30T15:20:14.530Z,26.15
2019-04-30T15:22:58.720Z,25.64
2019-04-30T15:25:38.760Z,26.01
2019-04-30T15:28:14.907Z,26.03
2019-04-30T15:30:58.777Z,26.02
2019-04-30T15:34:13.206Z,26.70
2019-04-30T15:36:59.018Z,26.44
2019-04-30T15:39:48.986Z,25.98
2019-04-30T15:42:55.089Z,26.32
2019-04-30T15:45:39.661Z,26.02
2019-04-30T15:48:40.795Z,26.83
2019-04-30T15:51:17.962Z,26.74
2019-04-30T15:53:52.648Z,26.63
2019-04-30T15:56:35.361Z,26.54
2019-04-30T15:59:28.860Z,27.02
2019-04-30T16:02:12.872Z,26.81
2019-04-30T16:05:11.863Z,26.31
2019-04-30T16:08:09.588Z,26.63
2019-04-30T16:11:00.470Z,26.39
2019-04-30T16:13:39.536Z,26.70
2019-04-30T16:16:13.298Z,26.74
2019-04-30T16:18:50.215Z,26.84
2019-04-30T16:21:23.771Z,26.64
2019-04-30T16:24:05.781Z,26.96
2019-04-30T16:26:49.930Z,26.85
2019-04-30T16:29:30.997Z,26.90
2019-04-30T16:32:04.781Z,26.66
2019-04-30T16:34:38.864Z,26.25
2019-04-30T16:37:19.996Z,26.57
2019-04-30T16:40:21.962Z,26.63
2019-04-30T16:42:58.209Z,26.69
2019-04-30T16:45:41.559Z,27.01
2019-04-30T16:48:14.904Z,26.83
2019-04-30T16:50:51.132Z,26.51
2019-04-30T16:53:25.567Z,26.63
2019-04-30T16:55:58.687Z,26.67
2019-04-30T16:58:50.413Z,26.62
2019-04-30T17:01:23.678Z,26.90
2019-04-30T17:05:11.175Z,27.21
2019-04-30T17:07:50.623Z,27.50
2019-04-30T17:11:01.359Z,27.73
2019-04-30T17:13:51.426Z,27.99
2019-04-30T17:16:26.651Z,28.40
2019-04-30T17:19:04.625Z,28.33
2019-04-30T17:21:42.678Z,28.34
2019-04-30T17:24:21.882Z,28.39
2019-04-30T17:27:19.256Z,28.60
2019-04-30T17:29:45.819Z,28.72
2019-04-30T17:32:19.089Z,28.99
2019-04-30T17:34:55.422Z,29.30
2019-04-30T17:37:31.547Z,29.62
2019-04-30T17:40:14.022Z,30.05
2019-04-30T17:42:47.533Z,30.35
2019-04-30T17:45:23.686Z,30.36
2019-04-30T17:47:58.571Z,30.92
2019-04-30T17:50:32.352Z,30.87
2019-04-30T17:53:09.076Z,30.97
2019-04-30T17:55:44.960Z,31.10
2019-04-30T17:58:20.688Z,31.15
2019-04-30T18:00:56.505Z,31.37
2019-04-30T18:03:30.121Z,31.38
2019-04-30T18:06:09.025Z,31.61
2019-04-30T18:08:43.899Z,31.64
2019-04-30T18:11:20.080Z,31.62
2019-04-30T18:13:53.738Z,31.76
2019-04-30T18:16:29.950Z,31.88
2019-04-30T18:19:10.047Z,31.84
2019-04-30T18:21:51.086Z,32.05
2019-04-30T18:24:46.298Z,32.21
2019-04-30T18:27:29.646Z,32.55
2019-04-30T18:30:12.993Z,32.79
2019-04-30T18:34:09.397Z,33.12
2019-04-30T18:37:21.401Z,33.79
2019-04-30T18:47:37.513Z,34.42
2019-04-30T18:50:29.815Z,34.46
2019-04-30T18:53:28.441Z,34.57
2019-04-30T18:56:19.150Z,35.14
2019-04-30T18:59:15.009Z,35.95
2019-04-30T19:02:19.146Z,36.29
2019-04-30T19:04:55.113Z,36.30
2019-04-30T19:07:37.022Z,36.28
2019-04-30T19:11:00.514Z,36.40
2019-04-30T19:14:24.602Z,37.01
2019-04-30T19:18:23.438Z,37.22
2019-04-30T19:24:56.084Z,38.10
2019-04-30T19:27:22.526Z,38.58
2019-04-30T19:29:59.511Z,39.48
2019-04-30T19:32:39.081Z,39.97
2019-04-30T19:35:15.858Z,40.04
2019-04-30T19:37:52.000Z,40.22
2019-04-30T19:40:28.640Z,40.44
2019-04-30T19:43:01.870Z,40.95
2019-04-30T19:45:36.805Z,41.76
2019-04-30T19:48:10.084Z,41.53
2019-04-30T19:50:43.184Z,42.18
2019-04-30T19:53:19.936Z,41.99
2019-04-30T19:55:51.955Z,42.37
2019-04-30T19:58:44.878Z,42.52
2019-04-30T20:01:01.709Z,42.74
2019-04-30T20:03:36.409Z,43.72
2019-04-30T20:06:09.939Z,43.78
2019-04-30T20:08:45.900Z,43.55
2019-04-30T20:11:18.912Z,43.82
2019-04-30T20:13:54.633Z,43.74
2019-04-30T20:16:27.723Z,44.12
2019-04-30T20:19:03.859Z,44.16
2019-04-30T20:21:48.200Z,44.87
2019-04-30T20:24:14.778Z,44.75
2019-04-30T20:26:50.221Z,45.22
2019-04-30T20:29:22.901Z,45.36
2019-04-30T20:31:56.015Z,45.63
2019-04-30T20:34:29.404Z,45.56
2019-04-30T20:37:02.681Z,45.61
2019-04-30T20:40:00.539Z,45.59
2019-04-30T20:42:33.847Z,45.65
2019-04-30T20:45:09.071Z,45.59
2019-04-30T20:47:42.822Z,46.21
2019-04-30T20:50:16.327Z,45.89
2019-04-30T20:52:49.601Z,46.29
2019-04-30T20:55:24.256Z,46.16
2019-04-30T20:57:59.348Z,46.24
2019-04-30T21:00:31.977Z,46.73
2019-04-30T21:03:05.272Z,46.25
2019-04-30T21:05:38.637Z,46.56
2019-04-30T21:08:11.806Z,46.41
2019-04-30T21:10:45.152Z,46.14
2019-04-30T21:13:19.360Z,46.29
2019-04-30T21:15:55.327Z,46.40
2019-04-30T21:18:30.528Z,46.25
2019-04-30T21:21:03.165Z,46.25
2019-04-30T21:23:36.457Z,46.63
2019-04-30T21:26:09.468Z,46.37
2019-04-30T21:28:43.307Z,46.07
2019-04-30T21:31:35.650Z,46.04
2019-04-30T21:34:15.545Z,46.19
2019-04-30T21:36:49.604Z,46.32
2019-04-30T21:39:22.795Z,46.26
2019-04-30T21:41:55.992Z,46.16
2019-04-30T21:44:29.375Z,46.58
2019-04-30T21:47:02.711Z,46.43
2019-04-30T21:49:36.288Z,46.82
2019-04-30T21:52:13.590Z,47.09
2019-04-30T21:54:48.679Z,47.07
2019-04-30T21:57:39.168Z,47.22
2019-04-30T22:00:18.523Z,47.27
2019-04-30T22:02:54.201Z,47.50
2019-04-30T22:05:31.804Z,47.38
2019-04-30T22:08:11.949Z,47.40
2019-04-30T22:10:55.564Z,47.47
2019-04-30T22:13:34.628Z,47.95
2019-04-30T22:16:10.421Z,48.07
2019-04-30T22:18:46.857Z,48.25
2019-04-30T22:21:30.449Z,48.18
2019-04-30T22:24:06.105Z,48.14
2019-04-30T22:26:41.029Z,47.75
2019-04-30T22:29:38.426Z,48.14
2019-04-30T22:32:00.447Z,48.63
2019-04-30T22:34:34.296Z,48.70
2019-04-30T22:37:08.875Z,48.58
2019-04-30T22:39:51.847Z,48.70
2019-04-30T22:42:42.331Z,49.03
2019-04-30T22:45:26.679Z,48.99
2019-04-30T22:48:00.139Z,49.38
2019-04-30T22:50:34.526Z,49.58
2019-04-30T22:53:07.993Z,49.26
2019-04-30T22:55:41.308Z,49.35
2019-04-30T22:58:15.153Z,50.00
2019-04-30T23:00:48.558Z,50.04
2019-04-30T23:03:26.002Z,50.11
2019-04-30T23:06:03.653Z,49.89
2019-04-30T23:08:37.268Z,49.80
2019-04-30T23:11:11.167Z,50.04
2019-04-30T23:13:47.994Z,50.17
2019-04-30T23:16:24.096Z,50.17
2019-04-30T23:19:02.675Z,50.33
2019-04-30T23:24:54.212Z,49.97
2019-04-30T23:27:29.013Z,50.42
2019-04-30T23:30:04.857Z,50.49
2019-04-30T23:32:54.213Z,50.65
2019-04-30T23:35:31.077Z,50.52
2019-04-30T23:38:17.506Z,51.16
2019-04-30T23:40:56.558Z,50.86
2019-04-30T23:43:35.725Z,50.76
2019-04-30T23:46:09.189Z,50.85
2019-04-30T23:48:48.518Z,50.75
2019-04-30T23:54:42.239Z,51.18
2019-04-30T23:57:16.534Z,51.32
2019-04-30T23:59:52.996Z,51.12
